createdAt,value
2018-06-13T00:08:00.218Z,1010.0
2018-06-13T00:18:45.551Z,1010.1
2018-06-13T00:29:00.445Z,1010.0
2018-06-13T00:39:20.374Z,1010.2
2018-06-13T00:50:15.030Z,1010.1
2018-06-13T01:00:29.275Z,1010.2
2018-06-13T01:11:26.446Z,1010.3
2018-06-13T01:32:06.702Z,1010.3
2018-06-13T01:42:20.821Z,1010.2
2018-06-13T01:52:41.284Z,1010.2
2018-06-13T02:02:53.505Z,1010.3
2018-06-13T02:13:10.740Z,1010.4
2018-06-13T02:23:24.838Z,1010.3
2018-06-13T02:34:19.254Z,1010.2
2018-06-13T02:44:38.386Z,1010.3
2018-06-13T02:54:57.743Z,1010.3
2018-06-13T03:05:28.130Z,1010.4
2018-06-13T03:15:51.760Z,1010.4
2018-06-13T03:36:32.999Z,1010.4
2018-06-13T03:46:47.132Z,1010.5
2018-06-13T03:57:04.219Z,1010.6
2018-06-13T04:07:19.519Z,1010.5
2018-06-13T04:17:39.182Z,1010.4
2018-06-13T04:28:07.264Z,1010.6
2018-06-13T04:38:55.600Z,1010.5
2018-06-13T04:49:59.385Z,1010.5
2018-06-13T05:00:46.815Z,1010.6
2018-06-13T05:11:45.478Z,1010.6
2018-06-13T05:33:04.556Z,1010.5
2018-06-13T05:43:26.447Z,1010.6
2018-06-13T05:53:44.263Z,1010.8
2018-06-13T06:03:58.356Z,1010.9
2018-06-13T06:14:48.915Z,1011.0
2018-06-13T06:25:34.472Z,1011.0
2018-06-13T06:36:36.801Z,1011.0
2018-06-13T06:47:07.031Z,1011.0
2018-06-13T07:07:46.418Z,1011.1
2018-06-13T07:18:02.345Z,1011.2
2018-06-13T07:29:03.213Z,1011.3
2018-06-13T07:39:21.591Z,1011.2
2018-06-13T07:50:08.515Z,1011.2
2018-06-13T08:01:06.250Z,1011.3
2018-06-13T08:12:02.925Z,1011.3
2018-06-13T08:22:20.344Z,1011.5
2018-06-13T08:32:35.116Z,1011.5
2018-06-13T08:42:53.330Z,1011.5
2018-06-13T08:53:22.084Z,1011.4
2018-06-13T09:03:45.847Z,1011.5
2018-06-13T09:24:25.729Z,1011.3
2018-06-13T09:35:10.807Z,1011.2
2018-06-13T09:46:12.996Z,1011.2
2018-06-13T09:57:14.102Z,1011.4
2018-06-13T10:07:30.807Z,1011.3
2018-06-13T10:17:53.224Z,1011.3
2018-06-13T10:28:15.944Z,1011.2
2018-06-13T10:38:41.864Z,1011.4
2018-06-13T10:49:16.241Z,1011.4
2018-06-13T10:59:39.734Z,1011.4
2018-06-13T11:10:04.888Z,1011.6
2018-06-13T11:20:27.763Z,1011.6
2018-06-13T11:31:00.991Z,1011.5
2018-06-13T11:41:28.094Z,1011.6
2018-06-13T11:51:49.766Z,1011.6
2018-06-13T12:02:10.363Z,1011.7
2018-06-13T12:12:31.014Z,1011.5
2018-06-13T12:33:11.393Z,1011.5
2018-06-13T12:43:26.043Z,1011.6
2018-06-13T12:54:15.483Z,1011.6
2018-06-13T13:04:31.271Z,1011.4
2018-06-13T13:15:17.292Z,1011.4
2018-06-13T13:25:36.174Z,1011.4
2018-06-13T13:35:58.869Z,1011.5
2018-06-13T13:56:39.625Z,1011.3
2018-06-13T14:06:58.285Z,1011.5
2018-06-13T14:17:44.747Z,1011.4
2018-06-13T14:28:03.118Z,1011.7
2018-06-13T14:39:04.514Z,1011.5
2018-06-13T14:50:29.475Z,1011.4
2018-06-13T15:00:53.396Z,1011.4
2018-06-13T15:11:07.449Z,1011.5
2018-06-13T15:22:09.071Z,1011.5
2018-06-13T15:43:17.740Z,1011.5
2018-06-13T16:04:03.811Z,1011.3
2018-06-13T16:36:55.808Z,1011.5
2018-06-13T16:47:10.915Z,1011.6
2018-06-13T16:57:29.406Z,1011.7
2018-06-13T17:08:44.243Z,1011.8
2018-06-13T17:19:36.096Z,1011.9
2018-06-13T17:29:50.317Z,1011.9
2018-06-13T17:40:04.802Z,1011.9
2018-06-13T17:50:55.256Z,1012.0
2018-06-13T18:01:46.162Z,1012.1
2018-06-13T18:12:01.020Z,1012.0
2018-06-13T18:22:16.679Z,1012.0
2018-06-13T18:32:32.225Z,1011.8
2018-06-13T18:43:20.358Z,1011.9
2018-06-13T18:54:06.810Z,1012.0
2018-06-13T19:07:15.030Z,1012.0
2018-06-13T19:18:01.680Z,1012.1
2018-06-13T19:29:30.205Z,1012.2
2018-06-13T19:40:53.204Z,1012.2
2018-06-13T19:59:02.550Z,1012.5
2018-06-13T20:45:06.946Z,1012.7
2018-06-13T20:55:21.212Z,1012.6
